CheckWX is a tool to help pilots better visualize weather data.  It is not intended as a substitute for an official pre-flight weather briefing.

03:51:03 UTC

CYVQ TAF
Norman Wells Airport
Norman Wells, Northwest Territories, Canada
TAF CYVQ 131741Z 1318/1406 15007KT P6SM FEW050 SCT120 TEMPO 1318/1406 P6SM -SHRA BKN050 BECMG 1320/1322 VRB03KT RMK NXT FCST BY 140000Z

Jul-13@
18:00 UTC

Jul-13 @ 18:00 UTC

Jul-13@
20:00 UTC

Jul-13 @ 20:00 UTC

TAF CYVQ 131741Z 1318/1406 15007KT P6SM FEW050 SCT120

Expired

Wind
  • 150° at 7 KTS
Cloud Levels
  • Few at 5,000' AGL
  • Scattered at 12,000' AGL

Jul-13@
18:00 UTC

Jul-13 @ 18:00 UTC

Jul-14@
06:00 UTC

Jul-14 @ 06:00 UTC

TEMPO 1318/1406 P6SM -SHRA BKN050

Temporary

Temporary Changes expected for less than half the time period

Conditions
Light Showers, Rain
Cloud Levels
  • Broken at 5,000' AGL

Jul-13@
20:00 UTC

Jul-13 @ 20:00 UTC

Jul-14@
06:00 UTC

Jul-14 @ 06:00 UTC

BECMG 1320/1322 VRB03KT RMK NXT FCST BY 140000Z

Becoming

Becoming Conditions expected by Mon, Jul 13, 2020 @ 22:00 UTC

Wind
  • Variable at 3 KTS
Cloud Levels
  • Few at 5,000' AGL
  • Scattered at 12,000' AGL